createdAt,value
2018-06-25T00:00:11.658Z,11.11
2018-06-25T00:00:24.099Z,11.11
2018-06-25T00:00:36.548Z,11.11
2018-06-25T00:00:48.984Z,11.11
2018-06-25T00:01:01.599Z,11.11
2018-06-25T00:01:14.217Z,11.11
2018-06-25T00:01:26.699Z,11.11
2018-06-25T00:01:39.144Z,11.11
2018-06-25T00:01:51.569Z,11.11
2018-06-25T00:02:04.007Z,11.11
2018-06-25T00:02:16.487Z,11.11
2018-06-25T00:02:28.890Z,11.11
2018-06-25T00:02:41.323Z,11.11
2018-06-25T00:02:53.736Z,11.11
2018-06-25T00:03:06.143Z,11.11
2018-06-25T00:03:18.551Z,11.11
2018-06-25T00:03:30.966Z,11.11
2018-06-25T00:03:43.373Z,11.11
2018-06-25T00:03:55.777Z,11.11
2018-06-25T00:04:08.184Z,11.11
2018-06-25T00:04:20.577Z,11.11
2018-06-25T00:04:33.004Z,11.11
2018-06-25T00:04:45.399Z,11.11
2018-06-25T00:04:57.794Z,11.11
2018-06-25T00:05:10.233Z,11.11
2018-06-25T00:05:22.640Z,11.11
2018-06-25T00:05:35.112Z,11.11
2018-06-25T00:05:47.523Z,11.11
2018-06-25T00:05:59.920Z,9.09
2018-06-25T00:06:12.341Z,9.09
2018-06-25T00:06:24.755Z,9.09
2018-06-25T00:06:37.157Z,9.09
2018-06-25T00:06:49.580Z,9.09
2018-06-25T00:07:01.982Z,9.09
2018-06-25T00:07:14.375Z,9.09
2018-06-25T00:07:26.835Z,9.09
2018-06-25T00:07:39.238Z,9.09
2018-06-25T00:07:51.822Z,9.09
2018-06-25T00:08:04.203Z,9.09
2018-06-25T00:08:16.626Z,9.09
2018-06-25T00:08:29.029Z,9.09
2018-06-25T00:08:41.424Z,9.09
2018-06-25T00:08:53.831Z,9.09
2018-06-25T00:09:06.244Z,9.09
2018-06-25T00:09:18.677Z,9.09
2018-06-25T00:09:31.180Z,9.09
2018-06-25T00:09:43.638Z,9.09
2018-06-25T00:09:56.075Z,9.09
2018-06-25T00:10:08.520Z,9.09
2018-06-25T00:10:20.938Z,9.09
2018-06-25T00:10:33.338Z,9.09
2018-06-25T00:10:45.732Z,9.09
2018-06-25T00:10:58.134Z,9.09
2018-06-25T00:11:10.533Z,9.09
2018-06-25T00:11:22.960Z,9.09
2018-06-25T00:11:35.376Z,9.09
2018-06-25T00:11:47.779Z,9.09
2018-06-25T00:12:00.212Z,9.09
2018-06-25T00:12:12.681Z,9.09
2018-06-25T00:12:25.074Z,9.09
2018-06-25T00:12:37.485Z,9.09
2018-06-25T00:12:49.895Z,9.09
2018-06-25T00:13:02.302Z,9.09
2018-06-25T00:13:14.707Z,9.09
2018-06-25T00:13:27.113Z,9.09
2018-06-25T00:13:39.557Z,9.09
2018-06-25T00:13:51.939Z,9.09
2018-06-25T00:14:04.335Z,9.09
2018-06-25T00:14:16.738Z,9.09
2018-06-25T00:14:29.152Z,9.09
2018-06-25T00:14:41.554Z,9.09
2018-06-25T00:14:53.967Z,9.09
2018-06-25T00:15:06.378Z,9.09
2018-06-25T00:15:18.772Z,9.09
2018-06-25T00:15:31.174Z,9.09
2018-06-25T00:15:43.581Z,9.09
2018-06-25T00:15:56.006Z,8.79
2018-06-25T00:16:08.423Z,8.79
2018-06-25T00:16:20.830Z,8.79
2018-06-25T00:16:33.215Z,8.79
2018-06-25T00:16:45.617Z,8.79
2018-06-25T00:16:58.018Z,8.79
2018-06-25T00:17:10.419Z,8.79
2018-06-25T00:17:22.968Z,8.79
2018-06-25T00:17:35.363Z,8.79
2018-06-25T00:17:47.837Z,8.79
2018-06-25T00:18:00.237Z,8.79
2018-06-25T00:18:12.650Z,8.79
2018-06-25T00:18:25.058Z,8.79
2018-06-25T00:18:37.466Z,8.79
2018-06-25T00:18:49.871Z,8.79
2018-06-25T00:19:02.291Z,8.79
2018-06-25T00:19:14.708Z,8.79
2018-06-25T00:19:27.107Z,8.79
2018-06-25T00:19:39.533Z,8.79
2018-06-25T00:19:51.967Z,8.79
2018-06-25T00:20:04.455Z,8.79
2018-06-25T00:20:16.851Z,8.79
2018-06-25T00:20:29.267Z,8.79
2018-06-25T00:20:41.845Z,8.79
2018-06-25T00:20:54.253Z,8.79
2018-06-25T00:21:06.662Z,8.79
2018-06-25T00:21:19.113Z,8.79
2018-06-25T00:21:31.498Z,8.79
2018-06-25T00:21:43.894Z,8.79
2018-06-25T00:21:56.288Z,8.79
2018-06-25T00:22:08.684Z,8.79
2018-06-25T00:22:21.081Z,8.79
2018-06-25T00:22:33.488Z,8.79
2018-06-25T00:22:45.921Z,8.79
2018-06-25T00:22:58.328Z,8.79
2018-06-25T00:23:10.723Z,8.79
2018-06-25T00:23:23.128Z,8.79
2018-06-25T00:23:35.541Z,8.79
2018-06-25T00:23:47.943Z,8.79
2018-06-25T00:24:00.362Z,8.79
2018-06-25T00:24:12.765Z,8.79
2018-06-25T00:24:25.158Z,8.79
2018-06-25T00:24:37.583Z,8.79
2018-06-25T00:24:49.999Z,8.79
2018-06-25T00:25:02.414Z,8.79
2018-06-25T00:25:14.847Z,8.79
2018-06-25T00:25:27.268Z,8.79
2018-06-25T00:25:39.869Z,8.79
2018-06-25T00:25:52.290Z,11.1
2018-06-25T00:26:04.689Z,11.1
2018-06-25T00:26:17.100Z,11.1
2018-06-25T00:26:29.509Z,11.1
2018-06-25T00:26:41.914Z,11.1
2018-06-25T00:26:54.456Z,11.1
2018-06-25T00:27:06.889Z,11.1
2018-06-25T00:27:19.306Z,11.1
2018-06-25T00:27:31.709Z,11.1
2018-06-25T00:27:44.164Z,11.1
2018-06-25T00:27:56.558Z,11.1
2018-06-25T00:28:08.969Z,11.1
2018-06-25T00:28:21.391Z,11.1
2018-06-25T00:28:33.798Z,11.1
2018-06-25T00:28:46.213Z,11.1
2018-06-25T00:28:58.607Z,11.1
2018-06-25T00:29:11.005Z,11.1
2018-06-25T00:29:23.474Z,11.1
2018-06-25T00:29:35.875Z,11.1
2018-06-25T00:29:48.299Z,11.1
2018-06-25T00:30:00.713Z,11.1
2018-06-25T00:30:13.143Z,11.1
2018-06-25T00:30:25.553Z,11.1
2018-06-25T00:30:37.957Z,11.1
2018-06-25T00:30:50.406Z,11.1
2018-06-25T00:31:02.806Z,11.1
2018-06-25T00:31:15.261Z,11.1
2018-06-25T00:31:27.689Z,11.1
2018-06-25T00:31:40.103Z,11.1
2018-06-25T00:31:52.547Z,11.1
2018-06-25T00:32:04.952Z,11.1
2018-06-25T00:32:17.370Z,11.1
2018-06-25T00:32:29.763Z,11.1
2018-06-25T00:32:42.165Z,11.1
2018-06-25T00:32:54.875Z,11.1
2018-06-25T00:33:07.296Z,11.1
2018-06-25T00:33:19.706Z,11.1
2018-06-25T00:33:32.118Z,11.1
2018-06-25T00:33:44.532Z,11.1
2018-06-25T00:33:56.927Z,11.1
2018-06-25T00:34:09.333Z,11.1
2018-06-25T00:34:21.740Z,11.1
2018-06-25T00:34:34.131Z,11.1
2018-06-25T00:34:46.556Z,11.1
2018-06-25T00:34:58.963Z,11.1
2018-06-25T00:35:11.450Z,11.1
2018-06-25T00:35:23.856Z,11.1
2018-06-25T00:35:36.252Z,11.1
2018-06-25T00:35:48.666Z,11.1
2018-06-25T00:36:01.075Z,10.48
2018-06-25T00:36:13.471Z,10.48
2018-06-25T00:36:25.869Z,10.48
2018-06-25T00:36:38.269Z,10.48
2018-06-25T00:36:50.716Z,10.48
2018-06-25T00:37:03.112Z,10.48
2018-06-25T00:37:15.504Z,10.48
2018-06-25T00:37:27.931Z,10.48
2018-06-25T00:37:40.361Z,10.48
2018-06-25T00:37:52.752Z,10.48
2018-06-25T00:38:05.152Z,10.48
2018-06-25T00:38:17.562Z,10.48
2018-06-25T00:38:29.973Z,10.48
2018-06-25T00:38:42.379Z,10.48
2018-06-25T00:38:54.799Z,10.48
2018-06-25T00:39:07.223Z,10.48
2018-06-25T00:39:19.627Z,10.48
2018-06-25T00:39:32.029Z,10.48
2018-06-25T00:39:44.440Z,10.48
2018-06-25T00:39:56.856Z,10.48
2018-06-25T00:40:09.272Z,10.48
2018-06-25T00:40:21.675Z,10.48
2018-06-25T00:40:34.072Z,10.48
2018-06-25T00:40:46.489Z,10.48
2018-06-25T00:40:58.901Z,10.48
2018-06-25T00:41:11.308Z,10.48
2018-06-25T00:41:23.703Z,10.48
2018-06-25T00:41:36.106Z,10.48
2018-06-25T00:41:48.525Z,10.48
2018-06-25T00:42:00.934Z,10.48
2018-06-25T00:42:13.430Z,10.48
2018-06-25T00:42:25.838Z,10.48
2018-06-25T00:42:38.323Z,10.48
2018-06-25T00:42:50.713Z,10.48
2018-06-25T00:43:03.131Z,10.48
2018-06-25T00:43:15.542Z,10.48
2018-06-25T00:43:27.937Z,10.48
2018-06-25T00:43:40.332Z,10.48
2018-06-25T00:43:52.747Z,10.48
2018-06-25T00:44:05.151Z,10.48
2018-06-25T00:44:17.559Z,10.48
2018-06-25T00:44:30.102Z,10.48
2018-06-25T00:44:42.493Z,10.48
2018-06-25T00:44:54.882Z,10.48
2018-06-25T00:45:07.332Z,10.48
2018-06-25T00:45:19.735Z,10.48
2018-06-25T00:45:32.134Z,10.48
2018-06-25T00:45:44.549Z,10.48
2018-06-25T00:45:57.095Z,8.27
2018-06-25T00:46:09.521Z,8.27
2018-06-25T00:46:21.924Z,8.27
2018-06-25T00:46:34.334Z,8.27
2018-06-25T00:46:46.745Z,8.27
2018-06-25T00:46:59.154Z,8.27
2018-06-25T00:47:11.568Z,8.27
2018-06-25T00:47:23.983Z,8.27
2018-06-25T00:47:36.395Z,8.27
2018-06-25T00:47:48.955Z,8.27
2018-06-25T00:48:01.357Z,8.27
2018-06-25T00:48:13.787Z,8.27
2018-06-25T00:48:26.189Z,8.27
2018-06-25T00:48:38.696Z,8.27
2018-06-25T00:48:51.093Z,8.27
2018-06-25T00:49:03.489Z,8.27
2018-06-25T00:49:15.905Z,8.27
2018-06-25T00:49:28.299Z,8.27
2018-06-25T00:49:40.698Z,8.27
2018-06-25T00:49:53.103Z,8.27
2018-06-25T00:50:05.502Z,8.27
2018-06-25T00:50:18.302Z,8.27
2018-06-25T00:50:30.707Z,8.27
2018-06-25T00:50:43.135Z,8.27
2018-06-25T00:50:55.534Z,8.27
2018-06-25T00:51:07.954Z,8.27
2018-06-25T00:51:20.381Z,8.27
2018-06-25T00:51:32.772Z,8.27
2018-06-25T00:51:45.166Z,8.27
2018-06-25T00:51:57.574Z,8.27
2018-06-25T00:52:09.995Z,8.27
2018-06-25T00:52:22.394Z,8.27
2018-06-25T00:52:34.796Z,8.27
2018-06-25T00:52:47.198Z,8.27
2018-06-25T00:52:59.597Z,8.27
2018-06-25T00:53:11.997Z,8.27
2018-06-25T00:53:24.428Z,8.27
2018-06-25T00:53:36.882Z,8.27
2018-06-25T00:53:49.291Z,8.27
2018-06-25T00:54:01.682Z,8.27
2018-06-25T00:54:14.095Z,8.27
2018-06-25T00:54:26.485Z,8.27
2018-06-25T00:54:38.884Z,8.27
2018-06-25T00:54:51.318Z,8.27
2018-06-25T00:55:03.729Z,8.27
2018-06-25T00:55:16.195Z,8.27
2018-06-25T00:55:28.601Z,8.27
2018-06-25T00:55:40.994Z,8.27
2018-06-25T00:55:53.403Z,9.97
2018-06-25T00:56:05.811Z,9.97
2018-06-25T00:56:18.209Z,9.97
2018-06-25T00:56:30.616Z,9.97
2018-06-25T00:56:43.041Z,9.97
2018-06-25T00:56:55.457Z,9.97
2018-06-25T00:57:07.907Z,9.97
2018-06-25T00:57:20.316Z,9.97
2018-06-25T00:57:32.725Z,9.97
2018-06-25T00:57:45.117Z,9.97
2018-06-25T00:57:57.515Z,9.97
2018-06-25T00:58:09.956Z,9.97
2018-06-25T00:58:22.358Z,9.97
2018-06-25T00:58:34.761Z,9.97
2018-06-25T00:58:47.185Z,9.97
2018-06-25T00:58:59.598Z,9.97
2018-06-25T00:59:12.001Z,9.97
2018-06-25T00:59:24.410Z,9.97
2018-06-25T00:59:36.813Z,9.97
2018-06-25T00:59:49.206Z,9.97
2018-06-25T01:00:01.612Z,9.97
2018-06-25T01:00:14.072Z,9.97
2018-06-25T01:00:26.520Z,9.97
2018-06-25T01:00:38.947Z,9.97
2018-06-25T01:00:51.387Z,9.97
2018-06-25T01:01:03.950Z,9.97
2018-06-25T01:01:16.482Z,9.97
2018-06-25T01:01:28.887Z,9.97
2018-06-25T01:01:41.302Z,9.97
2018-06-25T01:01:53.726Z,9.97
2018-06-25T01:02:06.126Z,9.97
2018-06-25T01:02:18.534Z,9.97
2018-06-25T01:02:30.952Z,9.97
2018-06-25T01:02:43.417Z,9.97
2018-06-25T01:02:55.867Z,9.97
2018-06-25T01:03:08.283Z,9.97
2018-06-25T01:03:20.672Z,9.97
2018-06-25T01:03:33.092Z,9.97
2018-06-25T01:03:45.511Z,9.97
2018-06-25T01:03:57.971Z,9.97
2018-06-25T01:04:10.386Z,9.97
2018-06-25T01:04:22.785Z,9.97
2018-06-25T01:04:35.190Z,9.97
2018-06-25T01:04:47.588Z,9.97
2018-06-25T01:05:00.019Z,9.97
2018-06-25T01:05:12.437Z,9.97
2018-06-25T01:05:24.890Z,9.97
2018-06-25T01:05:37.275Z,9.97
2018-06-25T01:05:49.687Z,9.97
2018-06-25T01:06:02.544Z,11.75
2018-06-25T01:06:15.550Z,11.75
2018-06-25T01:06:27.958Z,11.75
2018-06-25T01:06:40.350Z,11.75
2018-06-25T01:06:52.776Z,11.75
2018-06-25T01:07:05.200Z,11.75
2018-06-25T01:07:17.642Z,11.75
2018-06-25T01:07:30.070Z,11.75
2018-06-25T01:07:42.488Z,11.75
2018-06-25T01:07:55.047Z,11.75
2018-06-25T01:08:07.457Z,11.75
2018-06-25T01:08:19.855Z,11.75
2018-06-25T01:08:32.258Z,11.75
2018-06-25T01:08:44.659Z,11.75
2018-06-25T01:08:57.076Z,11.75
2018-06-25T01:09:09.504Z,11.75
2018-06-25T01:09:21.919Z,11.75
2018-06-25T01:09:34.340Z,11.75
2018-06-25T01:09:46.745Z,11.75
2018-06-25T01:09:59.159Z,11.75
2018-06-25T01:10:11.581Z,11.75
2018-06-25T01:10:23.982Z,11.75
2018-06-25T01:10:36.382Z,11.75
2018-06-25T01:10:48.782Z,11.75
2018-06-25T01:11:01.223Z,11.75
2018-06-25T01:11:13.639Z,11.75
2018-06-25T01:11:26.103Z,11.75
2018-06-25T01:11:38.515Z,11.75
2018-06-25T01:11:50.909Z,11.75
2018-06-25T01:12:03.316Z,11.75
2018-06-25T01:12:15.719Z,11.75
2018-06-25T01:12:28.114Z,11.75
2018-06-25T01:12:40.507Z,11.75
2018-06-25T01:12:52.933Z,11.75
2018-06-25T01:13:05.355Z,11.75
2018-06-25T01:13:17.752Z,11.75
2018-06-25T01:13:30.152Z,11.75
2018-06-25T01:13:42.566Z,11.75
2018-06-25T01:13:54.944Z,11.75
2018-06-25T01:14:07.350Z,11.75
2018-06-25T01:14:19.753Z,11.75
2018-06-25T01:14:32.133Z,11.75
2018-06-25T01:14:44.545Z,11.75
2018-06-25T01:14:56.961Z,11.75
2018-06-25T01:15:09.418Z,11.75
2018-06-25T01:15:21.913Z,11.75
2018-06-25T01:15:34.321Z,11.75
2018-06-25T01:15:46.735Z,11.75
2018-06-25T01:15:59.184Z,11.82
2018-06-25T01:16:11.581Z,11.82
2018-06-25T01:16:23.991Z,11.82
2018-06-25T01:16:36.394Z,11.82
2018-06-25T01:16:48.802Z,11.82
2018-06-25T01:17:01.224Z,11.82
2018-06-25T01:17:13.644Z,11.82
2018-06-25T01:17:26.105Z,11.82
2018-06-25T01:17:38.500Z,11.82
2018-06-25T01:17:50.913Z,11.82
2018-06-25T01:18:03.338Z,11.82
2018-06-25T01:18:15.754Z,11.82
2018-06-25T01:18:28.194Z,11.82
2018-06-25T01:18:40.591Z,11.82
2018-06-25T01:18:52.999Z,11.82
2018-06-25T01:19:05.418Z,11.82
2018-06-25T01:19:17.886Z,11.82
2018-06-25T01:19:30.343Z,11.82
2018-06-25T01:19:42.754Z,11.82
2018-06-25T01:19:55.159Z,11.82
2018-06-25T01:20:07.571Z,11.82
2018-06-25T01:20:19.969Z,11.82
2018-06-25T01:20:32.635Z,11.82
2018-06-25T01:20:45.040Z,11.82
2018-06-25T01:20:57.447Z,11.82
2018-06-25T01:21:09.848Z,11.82
2018-06-25T01:21:22.254Z,11.82
2018-06-25T01:21:34.667Z,11.82
2018-06-25T01:21:47.075Z,11.82
2018-06-25T01:21:59.489Z,11.82
2018-06-25T01:22:11.909Z,11.82
2018-06-25T01:22:24.389Z,11.82
2018-06-25T01:22:36.797Z,11.82
2018-06-25T01:22:49.197Z,11.82
2018-06-25T01:23:01.648Z,11.82
2018-06-25T01:23:14.047Z,11.82
2018-06-25T01:23:26.445Z,11.82
2018-06-25T01:23:38.857Z,11.82
2018-06-25T01:23:51.262Z,11.82
2018-06-25T01:24:03.677Z,11.82
2018-06-25T01:24:16.083Z,11.82
2018-06-25T01:24:28.473Z,11.82
2018-06-25T01:24:40.928Z,11.82
2018-06-25T01:24:53.344Z,11.82
2018-06-25T01:25:05.741Z,11.82
2018-06-25T01:25:18.255Z,11.82
2018-06-25T01:25:30.665Z,11.82
2018-06-25T01:25:43.076Z,11.82
2018-06-25T01:25:55.462Z,13.8
2018-06-25T01:26:07.867Z,13.8
2018-06-25T01:26:20.267Z,13.8
2018-06-25T01:26:32.665Z,13.8
2018-06-25T01:26:45.212Z,13.8
2018-06-25T01:26:57.642Z,13.8
2018-06-25T01:27:10.046Z,13.8
2018-06-25T01:27:22.494Z,13.8
2018-06-25T01:27:34.904Z,13.8
2018-06-25T01:27:47.306Z,13.8
2018-06-25T01:27:59.719Z,13.8
2018-06-25T01:28:12.121Z,13.8
2018-06-25T01:28:24.503Z,13.8
2018-06-25T01:28:36.892Z,13.8
2018-06-25T01:28:49.316Z,13.8
2018-06-25T01:29:01.707Z,13.8
2018-06-25T01:29:14.114Z,13.8
2018-06-25T01:29:26.527Z,13.8
2018-06-25T01:29:38.972Z,13.8
2018-06-25T01:29:51.393Z,13.8
2018-06-25T01:30:03.806Z,13.8
2018-06-25T01:30:16.215Z,13.8
2018-06-25T01:30:28.655Z,13.8
2018-06-25T01:30:41.046Z,13.8
2018-06-25T01:30:53.447Z,13.8
2018-06-25T01:31:05.830Z,13.8
2018-06-25T01:31:18.251Z,13.8
2018-06-25T01:31:30.645Z,13.8
2018-06-25T01:31:43.080Z,13.8
2018-06-25T01:31:55.489Z,13.8
2018-06-25T01:32:07.916Z,13.8
2018-06-25T01:32:20.330Z,13.8
2018-06-25T01:32:32.761Z,13.8
2018-06-25T01:32:45.201Z,13.8
2018-06-25T01:32:57.741Z,13.8
2018-06-25T01:33:10.140Z,13.8
2018-06-25T01:33:22.541Z,13.8
2018-06-25T01:33:34.982Z,13.8
2018-06-25T01:33:47.376Z,13.8
2018-06-25T01:33:59.782Z,13.8
2018-06-25T01:34:12.190Z,13.8
2018-06-25T01:34:24.581Z,13.8
2018-06-25T01:34:37.008Z,13.8
2018-06-25T01:34:49.465Z,13.8
2018-06-25T01:35:01.868Z,13.8
2018-06-25T01:35:14.280Z,13.8
2018-06-25T01:35:26.696Z,13.8
2018-06-25T01:35:39.090Z,13.8
2018-06-25T01:35:51.485Z,13.8
2018-06-25T01:36:03.883Z,15.98
2018-06-25T01:36:16.301Z,15.98
2018-06-25T01:36:28.702Z,15.98
2018-06-25T01:36:41.111Z,15.98
2018-06-25T01:36:53.509Z,15.98
2018-06-25T01:37:05.940Z,15.98
2018-06-25T01:37:18.364Z,15.98
2018-06-25T01:37:30.771Z,15.98
2018-06-25T01:37:43.171Z,15.98
2018-06-25T01:37:55.567Z,15.98
2018-06-25T01:38:08.029Z,15.98
2018-06-25T01:38:20.443Z,15.98
2018-06-25T01:38:32.871Z,15.98
2018-06-25T01:38:45.262Z,15.98
2018-06-25T01:38:57.658Z,15.98
2018-06-25T01:39:10.049Z,15.98
2018-06-25T01:39:22.457Z,15.98
2018-06-25T01:39:34.851Z,15.98
2018-06-25T01:39:47.247Z,15.98
2018-06-25T01:39:59.647Z,15.98
2018-06-25T01:40:12.064Z,15.98
2018-06-25T01:40:24.465Z,15.98
2018-06-25T01:40:36.916Z,15.98
2018-06-25T01:40:49.331Z,15.98
2018-06-25T01:41:01.733Z,15.98
2018-06-25T01:41:14.137Z,15.98
2018-06-25T01:41:26.551Z,15.98
2018-06-25T01:41:38.952Z,15.98
2018-06-25T01:41:51.581Z,15.98
2018-06-25T01:42:04.010Z,15.98
2018-06-25T01:42:16.435Z,15.98
2018-06-25T01:42:28.846Z,15.98
2018-06-25T01:42:41.407Z,15.98
2018-06-25T01:42:53.814Z,15.98
2018-06-25T01:43:06.239Z,15.98
2018-06-25T01:43:18.657Z,15.98
2018-06-25T01:43:31.065Z,15.98
2018-06-25T01:43:43.479Z,15.98
2018-06-25T01:43:55.878Z,15.98
2018-06-25T01:44:08.313Z,15.98
2018-06-25T01:44:20.771Z,15.98
2018-06-25T01:44:33.418Z,15.98
2018-06-25T01:44:45.804Z,15.98
2018-06-25T01:44:58.225Z,15.98
2018-06-25T01:45:10.702Z,15.98
2018-06-25T01:45:23.131Z,15.98
2018-06-25T01:45:35.545Z,15.98
2018-06-25T01:45:47.956Z,15.98
2018-06-25T01:46:00.611Z,14.7
2018-06-25T01:46:13.051Z,14.7
2018-06-25T01:46:25.484Z,14.7
2018-06-25T01:46:37.898Z,14.7
2018-06-25T01:46:50.303Z,14.7
2018-06-25T01:47:02.703Z,14.7
2018-06-25T01:47:15.138Z,14.7
2018-06-25T01:47:27.560Z,14.7
2018-06-25T01:47:39.979Z,14.7
2018-06-25T01:47:52.505Z,14.7
2018-06-25T01:48:04.919Z,14.7
2018-06-25T01:48:17.342Z,14.7
2018-06-25T01:48:29.760Z,14.7
2018-06-25T01:48:42.328Z,14.7
2018-06-25T01:48:54.736Z,14.7
2018-06-25T01:49:07.142Z,14.7
2018-06-25T01:49:19.636Z,14.7
2018-06-25T01:49:32.038Z,14.7
2018-06-25T01:49:44.448Z,14.7
2018-06-25T01:49:56.860Z,14.7
2018-06-25T01:50:09.266Z,14.7
2018-06-25T01:50:21.687Z,14.7
2018-06-25T01:50:34.124Z,14.7
2018-06-25T01:50:46.672Z,14.7
2018-06-25T01:50:59.081Z,14.7
2018-06-25T01:51:11.501Z,14.7
2018-06-25T01:51:23.927Z,14.7
2018-06-25T01:51:36.361Z,14.7
2018-06-25T01:51:48.750Z,14.7
2018-06-25T01:52:01.171Z,14.7
2018-06-25T01:52:13.651Z,14.7
2018-06-25T01:52:26.037Z,14.7
2018-06-25T01:52:38.464Z,14.7
2018-06-25T01:52:50.902Z,14.7
2018-06-25T01:53:03.294Z,14.7
2018-06-25T01:53:15.700Z,14.7
2018-06-25T01:53:28.123Z,14.7
2018-06-25T01:53:40.553Z,14.7
2018-06-25T01:53:52.960Z,14.7
2018-06-25T01:54:05.396Z,14.7
2018-06-25T01:54:17.797Z,14.7
2018-06-25T01:54:30.211Z,14.7
2018-06-25T01:54:42.625Z,14.7
2018-06-25T01:54:55.081Z,14.7
2018-06-25T01:55:07.486Z,14.7
2018-06-25T01:55:19.886Z,14.7
2018-06-25T01:55:32.324Z,14.7
2018-06-25T01:55:44.727Z,14.7
2018-06-25T01:55:57.123Z,14.2
2018-06-25T01:56:09.576Z,14.2
2018-06-25T01:56:21.988Z,14.2
2018-06-25T01:56:34.388Z,14.2
2018-06-25T01:56:46.798Z,14.2
2018-06-25T01:56:59.228Z,14.2
2018-06-25T01:57:11.642Z,14.2
2018-06-25T01:57:24.067Z,14.2
2018-06-25T01:57:36.454Z,14.2
2018-06-25T01:57:48.857Z,14.2
2018-06-25T01:58:01.269Z,14.2
2018-06-25T01:58:13.668Z,14.2
2018-06-25T01:58:26.123Z,14.2
2018-06-25T01:58:38.588Z,14.2
2018-06-25T01:58:50.993Z,14.2
2018-06-25T01:59:03.458Z,14.2
2018-06-25T01:59:15.872Z,14.2
2018-06-25T01:59:28.277Z,14.2
2018-06-25T01:59:40.699Z,14.2
2018-06-25T01:59:53.121Z,14.2
2018-06-25T02:00:05.585Z,14.2
2018-06-25T02:00:18.040Z,14.2
2018-06-25T02:00:30.478Z,14.2
2018-06-25T02:00:42.913Z,14.2
2018-06-25T02:00:55.507Z,14.2
2018-06-25T02:01:07.971Z,14.2
2018-06-25T02:01:20.608Z,14.2
2018-06-25T02:01:33.016Z,14.2
2018-06-25T02:01:45.429Z,14.2
2018-06-25T02:01:57.866Z,14.2
2018-06-25T02:02:10.287Z,14.2
2018-06-25T02:02:22.690Z,14.2
2018-06-25T02:02:35.117Z,14.2
2018-06-25T02:02:47.544Z,14.2
2018-06-25T02:02:59.945Z,14.2
2018-06-25T02:03:12.348Z,14.2
2018-06-25T02:03:24.758Z,14.2
2018-06-25T02:03:37.217Z,14.2
2018-06-25T02:03:49.635Z,14.2
2018-06-25T02:04:02.053Z,14.2
2018-06-25T02:04:14.473Z,14.2
2018-06-25T02:04:26.888Z,14.2
2018-06-25T02:04:39.305Z,14.2
2018-06-25T02:04:51.711Z,14.2
2018-06-25T02:05:04.109Z,14.2
2018-06-25T02:05:16.530Z,14.2
2018-06-25T02:05:28.993Z,14.2
2018-06-25T02:05:41.410Z,14.2
2018-06-25T02:05:53.824Z,14.2
2018-06-25T02:06:06.261Z,18.61
2018-06-25T02:06:18.742Z,18.61
2018-06-25T02:06:31.179Z,18.61
2018-06-25T02:06:43.571Z,18.61
2018-06-25T02:06:55.978Z,18.61
2018-06-25T02:07:08.381Z,18.61
2018-06-25T02:07:20.764Z,18.61
2018-06-25T02:07:33.159Z,18.61
2018-06-25T02:07:45.583Z,18.61
2018-06-25T02:07:58.049Z,18.61
2018-06-25T02:08:10.462Z,18.61
2018-06-25T02:08:22.862Z,18.61
2018-06-25T02:08:35.255Z,18.61
2018-06-25T02:08:47.647Z,18.61
2018-06-25T02:09:00.068Z,18.61
2018-06-25T02:09:12.479Z,18.61
2018-06-25T02:09:24.872Z,18.61
2018-06-25T02:09:37.262Z,18.61
2018-06-25T02:09:49.658Z,18.61
2018-06-25T02:10:02.055Z,18.61
2018-06-25T02:10:14.451Z,18.61
2018-06-25T02:10:26.855Z,18.61
2018-06-25T02:10:39.288Z,18.61
2018-06-25T02:10:51.702Z,18.61
2018-06-25T02:11:04.107Z,18.61
2018-06-25T02:11:16.510Z,18.61
2018-06-25T02:11:28.924Z,18.61
2018-06-25T02:11:41.372Z,18.61
2018-06-25T02:11:53.765Z,18.61
2018-06-25T02:12:06.154Z,18.61
2018-06-25T02:12:18.559Z,18.61
2018-06-25T02:12:30.960Z,18.61
2018-06-25T02:12:43.369Z,18.61
2018-06-25T02:12:55.840Z,18.61
2018-06-25T02:13:08.253Z,18.61
2018-06-25T02:13:20.666Z,18.61
2018-06-25T02:13:33.067Z,18.61
2018-06-25T02:13:45.478Z,18.61
2018-06-25T02:13:57.877Z,18.61
2018-06-25T02:14:10.269Z,18.61
2018-06-25T02:14:22.665Z,18.61
2018-06-25T02:14:35.086Z,18.61
2018-06-25T02:14:47.498Z,18.61
2018-06-25T02:14:59.906Z,18.61
2018-06-25T02:15:12.316Z,18.61
2018-06-25T02:15:24.702Z,18.61
2018-06-25T02:15:37.102Z,18.61
2018-06-25T02:15:49.519Z,18.61
2018-06-25T02:16:01.922Z,23.57
2018-06-25T02:16:14.334Z,23.57
2018-06-25T02:16:26.743Z,23.57
2018-06-25T02:16:39.215Z,23.57
2018-06-25T02:16:51.624Z,23.57
2018-06-25T02:17:04.041Z,23.57
2018-06-25T02:17:16.448Z,23.57
2018-06-25T02:17:28.833Z,23.57
2018-06-25T02:17:41.246Z,23.57
2018-06-25T02:17:53.691Z,23.57
2018-06-25T02:18:06.119Z,23.57
2018-06-25T02:18:18.524Z,23.57
2018-06-25T02:18:30.936Z,23.57
2018-06-25T02:18:43.393Z,23.57
2018-06-25T02:18:55.862Z,23.57
2018-06-25T02:19:08.273Z,23.57
2018-06-25T02:19:20.676Z,23.57
2018-06-25T02:19:33.074Z,23.57
2018-06-25T02:19:45.466Z,23.57
2018-06-25T02:19:57.944Z,23.57
2018-06-25T02:20:10.334Z,23.57
2018-06-25T02:20:22.741Z,23.57
2018-06-25T02:20:35.262Z,23.57
2018-06-25T02:20:47.661Z,23.57
2018-06-25T02:21:00.083Z,23.57
2018-06-25T02:21:12.489Z,23.57
2018-06-25T02:21:24.889Z,23.57
2018-06-25T02:21:37.313Z,23.57
2018-06-25T02:21:49.740Z,23.57
2018-06-25T02:22:02.124Z,23.57
2018-06-25T02:22:14.529Z,23.57
2018-06-25T02:22:26.919Z,23.57
2018-06-25T02:22:39.315Z,23.57
2018-06-25T02:22:51.722Z,23.57
2018-06-25T02:23:04.105Z,23.57
2018-06-25T02:23:16.506Z,23.57
2018-06-25T02:23:28.903Z,23.57
2018-06-25T02:23:41.303Z,23.57
2018-06-25T02:23:53.681Z,23.57
2018-06-25T02:24:06.075Z,23.57
2018-06-25T02:24:18.472Z,23.57
2018-06-25T02:24:30.879Z,23.57
2018-06-25T02:24:43.289Z,23.57
2018-06-25T02:24:55.684Z,23.57
2018-06-25T02:25:08.086Z,23.57
2018-06-25T02:25:20.468Z,23.57
2018-06-25T02:25:32.893Z,23.57
2018-06-25T02:25:45.298Z,23.57
2018-06-25T02:25:57.713Z,23.57
2018-06-25T02:26:10.117Z,31.14
2018-06-25T02:26:22.747Z,31.14
2018-06-25T02:26:35.146Z,31.14
2018-06-25T02:26:47.713Z,31.14
2018-06-25T02:27:00.115Z,31.14
2018-06-25T02:27:12.506Z,31.14
2018-06-25T02:27:24.900Z,31.14
2018-06-25T02:27:37.308Z,31.14
2018-06-25T02:27:49.710Z,31.14
2018-06-25T02:28:02.107Z,31.14
2018-06-25T02:28:14.507Z,31.14
2018-06-25T02:28:26.907Z,31.14
2018-06-25T02:28:39.340Z,31.14
2018-06-25T02:28:51.742Z,31.14
2018-06-25T02:29:04.164Z,31.14
2018-06-25T02:29:16.563Z,31.14
2018-06-25T02:29:28.991Z,31.14
2018-06-25T02:29:41.366Z,31.14
2018-06-25T02:29:53.771Z,31.14
2018-06-25T02:30:06.172Z,31.14
2018-06-25T02:30:18.571Z,31.14
2018-06-25T02:30:30.999Z,31.14
2018-06-25T02:30:43.419Z,31.14
2018-06-25T02:30:55.844Z,31.14
2018-06-25T02:31:08.272Z,31.14
2018-06-25T02:31:20.674Z,31.14
2018-06-25T02:31:33.092Z,31.14
2018-06-25T02:31:45.648Z,31.14
2018-06-25T02:31:58.051Z,31.14
2018-06-25T02:32:10.470Z,31.14
2018-06-25T02:32:22.899Z,31.14
2018-06-25T02:32:35.308Z,31.14
2018-06-25T02:32:47.716Z,31.14
2018-06-25T02:33:00.770Z,31.14
2018-06-25T02:33:13.777Z,31.14
2018-06-25T02:33:26.198Z,31.14
2018-06-25T02:33:38.606Z,31.14
2018-06-25T02:33:51.039Z,31.14
2018-06-25T02:34:03.460Z,31.14
2018-06-25T02:34:15.915Z,31.14
2018-06-25T02:34:28.340Z,31.14
2018-06-25T02:34:40.775Z,31.14
2018-06-25T02:34:53.186Z,31.14
2018-06-25T02:35:05.641Z,31.14
2018-06-25T02:35:18.067Z,31.14
2018-06-25T02:35:30.482Z,31.14
2018-06-25T02:35:42.919Z,31.14
2018-06-25T02:35:55.320Z,31.14
2018-06-25T02:36:07.780Z,21.77
2018-06-25T02:36:20.286Z,21.77
2018-06-25T02:36:32.755Z,21.77
2018-06-25T02:36:45.257Z,21.77
2018-06-25T02:36:57.677Z,21.77
2018-06-25T02:37:10.135Z,21.77
2018-06-25T02:37:22.537Z,21.77
2018-06-25T02:37:34.967Z,21.77
2018-06-25T02:37:47.385Z,21.77
2018-06-25T02:37:59.790Z,21.77
2018-06-25T02:38:12.233Z,21.77
2018-06-25T02:38:24.688Z,21.77
2018-06-25T02:38:37.812Z,21.77
2018-06-25T02:38:51.070Z,21.77
2018-06-25T02:39:03.525Z,21.77
2018-06-25T02:39:15.978Z,21.77
2018-06-25T02:39:28.465Z,21.77
2018-06-25T02:39:40.921Z,21.77
2018-06-25T02:39:53.345Z,21.77
2018-06-25T02:40:05.774Z,21.77
2018-06-25T02:40:18.170Z,21.77
2018-06-25T02:40:30.632Z,21.77
2018-06-25T02:40:43.047Z,21.77
2018-06-25T02:40:55.451Z,21.77
2018-06-25T02:41:07.886Z,21.77
2018-06-25T02:41:20.300Z,21.77
2018-06-25T02:41:32.716Z,21.77
2018-06-25T02:41:45.121Z,21.77
2018-06-25T02:41:57.565Z,21.77
2018-06-25T02:42:10.002Z,21.77
2018-06-25T02:42:22.450Z,21.77
2018-06-25T02:42:34.858Z,21.77
2018-06-25T02:42:47.299Z,21.77